Flight Track Log - Related Links

Times and Time Zones

All times are in EDT time to prevent confusion due to time zone crossing. See the N83413 flight status page for this flight to view local times or setup timezone preferences in your user account.


Time Position Orientation Groundspeed Altitude Reporting Facility
EDT Latitude Longitude Course Direction KTS MPH feet Rate Location/Type
Fri 07:18:00 PM 33.6367 -85.5467 79° East  Level FlightAware Approximate
Fri 07:19:00 PM 33.6487 -85.4751 79° East  Level FlightAware Approximate
Fri 07:19:52 PM 33.6094 -86.0119 80° East 168 193 2,600  Level Atlanta Center
Fri 07:20:00 PM 33.6606 -85.4033 79° East  Level FlightAware Approximate
Fri 07:21:00 PM 33.6667 -85.3309 90° East  Level FlightAware Approximate
Fri 07:22:00 PM 33.6728 -85.2589 73° East  Level FlightAware Approximate
Fri 07:22:01 PM 33.6258 -85.9025 80° East 268 308 6,300  Level Atlanta Center
Fri 07:23:00 PM 33.6877 -85.1880 80° East  Level FlightAware Approximate
Fri 07:23:01 PM 33.6328 -85.8503 81° East 209 241 7,800  Level Atlanta Center
Fri 07:24:00 PM 33.6986 -85.1161 80° East  Level FlightAware Approximate
Fri 07:24:01 PM 33.6400 -85.7856 82° East 178 205 15,000  Level Atlanta Center
Fri 07:25:00 PM 33.7095 -85.0441 80° East  Level FlightAware Approximate
Fri 07:25:01 PM 33.6514 -85.7233 78° East 178 205 10,700  Level Atlanta Center
Fri 07:26:01 PM 33.6625 -85.6611 78° East 184 212 12,200 1,350 Climbing Atlanta Center
Fri 07:27:01 PM 33.6675 -85.5939 85° East 189 217 13,400 1,200 Climbing Atlanta Center
Fri 07:28:01 PM 33.6769 -85.5217 81° East 206 237 14,600 800 Climbing Atlanta Center
Fri 07:29:01 PM 33.6858 -85.4544 81° East 218 251 15,000 200 Climbing Atlanta Center
Fri 07:30:01 PM 33.6972 -85.3672 81° East 245 282 15,000  Level Atlanta Center
Fri 07:31:01 PM 33.7108 -85.2775 80° East 266 306 15,000  Level Atlanta Center
Fri 07:32:01 PM 33.7222 -85.1853 82° East 275 316 15,000  Level Atlanta Center
Fri 07:33:01 PM 33.7333 -85.0928 82° East 275 316 15,000  Level Atlanta Center
Fri 07:34:01 PM 33.7447 -85.0006 82° East 275 316 15,000  Level Atlanta Center
Fri 07:35:01 PM 33.7578 -84.9083 80° East 275 316 15,000  Level Atlanta Center
Fri 07:36:01 PM 33.7689 -84.8161 82° East 280 322 15,000  Level Atlanta Center
Fri 07:37:01 PM 33.7819 -84.7236 80° East 280 322 15,000  Level Atlanta Center
Fri 07:38:01 PM 33.7928 -84.6286 82° East 280 322 15,000  Level Atlanta Center
Fri 07:39:01 PM 33.8036 -84.5339 82° East 280 322 15,000  Level Atlanta Center
Fri 07:40:01 PM 33.8125 -84.4339 84° East 274 315 15,000  Level Atlanta Center
Fri 07:41:01 PM 33.8211 -84.3414 84° East 274 315 15,000  Level Atlanta Center
Fri 07:42:01 PM 33.8358 -84.2589 78° East 279 321 15,000 -94 Level Atlanta Center
Fri 07:43:08 PM 33.8500 -84.1333 82° East 280 322 14,800 -756 Descending Atlanta TRACON
Fri 07:44:08 PM 33.8500 -84.0500 90° East 280 322 13,400 -1,381 Descending Atlanta TRACON
Fri 07:45:01 PM 33.8403 -83.9689 98° East 269 310 12,200 -1,434 Descending Atlanta Center
Fri 07:46:01 PM 33.8422 -83.8886 88° East 255 293 10,700 -1,500 Descending Atlanta Center
Fri 07:47:01 PM 33.8608 -83.8161 73° East 231 266 9,200 -1,500 Descending Atlanta Center
Fri 07:48:01 PM 33.8858 -83.7486 66° East 223 257 7,700 -1,750 Descending Atlanta Center
Fri 07:49:01 PM 33.9064 -83.6833 69° East 217 250 5,700 -2,150 Descending Atlanta Center
Fri 07:50:01 PM 33.9250 -83.6208 70° East 200 230 3,400 -1,027 Descending Atlanta Center
Fri 07:52:08 PM 33.9500 -83.5167 74° East 135 155 2,500 -289 Descending Atlanta TRACON
Fri 07:53:08 PM 33.9500 -83.4833 90° East 126 145 2,500  Level Atlanta TRACON
Fri 07:54:08 PM 33.9500 -83.4333 90° East 124 143 2,500 -350 Level Atlanta TRACON
Fri 07:55:08 PM 33.9500 -83.4000 90° East 119 137 1,800 -650 Descending Atlanta TRACON
Fri 07:56:08 PM 33.9500 -83.3667 90° East 112 129 1,200 -600 Descending Atlanta TRACON
Fri 07:58:00 PM 33.9486 -83.3264 90° East  Level Estimated

Login

Don't have an account? Register now (free) for customized features, flight alerts, and more!